Time;durP1;ratioP1;P1;durP2;ratioP2;P2;SDS_P1;SDS_P2;PMS_P1;PMS_P2;Temp;Humidity;BMP_temperature;BMP_pressure;BME280_temperature;BME280_humidity;BME280_pressure;Samples;Min_cycle;Max_cycle;Signal;HPM_P1;HPM_P2
2023/11/25 00:00:58;;;;;;;4.50;2.10;;;2.00;99.90;;;;;;5078325;28;20461;-61
2023/11/25 00:03:26;;;;;;;5.17;2.23;;;2.00;1.00;;;;;;5078812;28;20460;-61
2023/11/25 00:05:54;;;;;;;5.97;2.13;;;1.90;1.00;;;;;;5079489;28;20582;-61
2023/11/25 00:08:21;;;;;;;7.67;2.67;;;1.90;99.90;;;;;;5078824;28;20808;-61
2023/11/25 00:10:49;;;;;;;5.43;2.03;;;2.00;99.90;;;;;;5079507;28;20527;-61
2023/11/25 00:13:17;;;;;;;5.90;2.43;;;2.00;99.90;;;;;;5074254;28;20469;-61
2023/11/25 00:15:46;;;;;;;7.23;2.50;;;1.90;99.90;;;;;;5059052;28;20455;-61
2023/11/25 00:18:13;;;;;;;4.40;2.03;;;1.90;99.90;;;;;;5068501;28;20493;-60
2023/11/25 00:20:41;;;;;;;8.00;2.60;;;1.90;99.90;;;;;;5079143;28;20873;-61
2023/11/25 00:23:08;;;;;;;4.80;2.23;;;1.90;99.90;;;;;;5078752;28;20457;-60
2023/11/25 00:25:35;;;;;;;9.20;4.10;;;1.80;99.90;;;;;;5078287;28;20489;-60
2023/11/25 00:28:04;;;;;;;6.97;2.87;;;1.80;57.80;;;;;;5078830;28;20540;-60
2023/11/25 00:30:31;;;;;;;6.33;2.23;;;1.80;55.40;;;;;;5074353;28;20519;-60
2023/11/25 00:33:02;;;;;;;5.30;2.30;;;1.80;99.90;;;;;;5076381;28;20449;-60
2023/11/25 00:35:30;;;;;;;7.10;2.20;;;1.80;99.90;;;;;;5074802;28;20898;-59
2023/11/25 00:37:57;;;;;;;4.90;2.23;;;1.90;1.00;;;;;;5077103;28;20457;-61
2023/11/25 00:40:25;;;;;;;3.70;1.97;;;1.90;1.00;;;;;;5073413;28;20448;-60
2023/11/25 00:42:53;;;;;;;7.77;2.97;;;1.90;1.00;;;;;;5077267;28;20518;-60
2023/11/25 00:45:20;;;;;;;6.57;2.23;;;2.00;1.00;;;;;;5076120;28;20591;-60
2023/11/25 00:47:48;;;;;;;8.07;2.47;;;2.00;1.00;;;;;;5074580;28;20886;-61
2023/11/25 00:50:16;;;;;;;4.60;2.10;;;2.00;99.90;;;;;;5076311;28;20484;-60
2023/11/25 00:52:44;;;;;;;5.00;2.63;;;2.10;1.00;;;;;;5075214;28;20461;-60
2023/11/25 00:55:11;;;;;;;6.70;2.40;;;2.10;99.90;;;;;;5076055;28;20472;-61
2023/11/25 00:57:39;;;;;;;9.07;2.60;;;2.10;46.60;;;;;;5075878;28;20512;-60
2023/11/25 01:00:10;;;;;;;5.97;2.33;;;2.10;1.00;;;;;;5076468;28;20462;-60
2023/11/25 01:02:37;;;;;;;5.90;2.47;;;2.10;1.00;;;;;;5076451;28;20485;-60
2023/11/25 01:05:05;;;;;;;6.07;3.17;;;2.10;51.40;;;;;;5075384;28;20580;-60
2023/11/25 01:07:34;;;;;;;5.50;2.17;;;2.10;1.00;;;;;;5077447;28;20483;-61
2023/11/25 01:10:01;;;;;;;8.90;2.60;;;2.10;1.00;;;;;;5073158;28;20449;-61
2023/11/25 01:12:28;;;;;;;6.17;2.33;;;2.20;99.90;;;;;;5076341;28;20507;-60
2023/11/25 01:14:56;;;;;;;5.90;1.90;;;2.20;99.90;;;;;;5077341;28;20456;-61
2023/11/25 01:17:26;;;;;;;8.30;2.27;;;2.20;1.00;;;;;;5077853;28;20460;-61
2023/11/25 01:19:53;;;;;;;6.07;2.00;;;2.20;1.00;;;;;;5077882;28;20453;-61
2023/11/25 01:22:20;;;;;;;6.20;2.53;;;2.20;25.90;;;;;;5077841;28;20453;-61
2023/11/25 01:24:50;;;;;;;9.97;3.37;;;2.30;27.00;;;;;;5077404;28;20454;-61
2023/11/25 01:27:17;;;;;;;8.90;2.60;;;2.30;98.10;;;;;;5077595;28;20457;-61
2023/11/25 01:29:45;;;;;;;9.27;2.93;;;2.30;99.90;;;;;;5076959;28;20508;-61
2023/11/25 01:32:13;;;;;;;6.03;3.23;;;2.30;99.90;;;;;;5077092;28;20454;-61
2023/11/25 01:34:40;;;;;;;8.93;3.90;;;2.30;99.90;;;;;;5078065;28;20449;-61
2023/11/25 01:37:07;;;;;;;6.70;3.73;;;2.30;1.00;;;;;;5076699;28;20493;-62
2023/11/25 01:39:35;;;;;;;8.50;3.60;;;2.30;1.00;;;;;;5077383;28;20956;-61
2023/11/25 01:42:04;;;;;;;11.13;3.70;;;2.30;99.90;;;;;;5062924;28;20461;-62
2023/11/25 01:44:31;;;;;;;9.63;4.27;;;2.40;99.90;;;;;;5061152;28;20449;-61
2023/11/25 01:46:58;;;;;;;7.50;3.63;;;2.40;99.90;;;;;;5077182;28;20952;-62
2023/11/25 01:49:26;;;;;;;14.53;4.50;;;2.30;99.90;;;;;;5073330;28;20491;-62
2023/11/25 01:51:54;;;;;;;9.63;3.90;;;2.40;99.90;;;;;;5074182;28;20476;-61
2023/11/25 01:54:23;;;;;;;12.00;3.80;;;2.30;78.00;;;;;;5073212;28;20578;-61
2023/11/25 01:56:55;;;;;;;11.90;4.43;;;2.20;99.90;;;;;;5069074;28;20494;-61
2023/11/25 01:59:25;;;;;;;14.73;4.90;;;2.20;99.90;;;;;;5080793;28;20554;-61
2023/11/25 02:01:52;;;;;;;11.13;4.67;;;2.10;99.90;;;;;;5097902;28;20449;-61
2023/11/25 02:04:20;;;;;;;10.30;4.33;;;2.10;99.90;;;;;;5097148;28;20510;-60
2023/11/25 02:06:47;;;;;;;12.60;5.10;;;2.10;99.90;;;;;;5096132;28;20495;-60
2023/11/25 02:09:14;;;;;;;9.53;5.67;;;2.10;99.90;;;;;;5094726;28;20870;-60
2023/11/25 02:11:57;;;;;;;7.67;3.90;;;2.00;99.90;;;;;;5083251;28;20560;-61
2023/11/25 02:14:27;;;;;;;11.77;5.77;;;2.00;1.00;;;;;;5076105;28;20461;-60
2023/11/25 02:16:55;;;;;;;12.80;4.83;;;2.00;99.90;;;;;;5075420;28;20424;-59
2023/11/25 02:19:24;;;;;;;9.47;5.17;;;1.90;99.90;;;;;;5075706;28;20818;-60
2023/11/25 02:21:52;;;;;;;11.53;6.67;;;1.90;1.00;;;;;;5075712;28;20755;-60
2023/11/25 02:24:22;;;;;;;13.47;6.53;;;1.90;1.00;;;;;;5075969;28;20457;-59
2023/11/25 02:26:57;;;;;;;15.97;6.67;;;1.90;99.90;;;;;;5074636;28;20510;-59
2023/11/25 02:29:24;;;;;;;10.17;6.53;;;1.90;99.90;;;;;;5075755;28;20479;-60
2023/11/25 02:31:51;;;;;;;10.07;6.93;;;1.90;99.90;;;;;;5076709;28;20440;-60
2023/11/25 02:34:20;;;;;;;13.00;7.10;;;1.90;99.90;;;;;;5075746;28;20507;-59
2023/11/25 02:36:48;;;;;;;18.47;8.03;;;1.80;99.90;;;;;;5074889;28;20465;-60
2023/11/25 02:39:18;;;;;;;13.60;7.93;;;1.80;99.90;;;;;;5075206;28;20468;-58
2023/11/25 02:41:49;;;;;;;15.97;7.87;;;1.80;99.90;;;;;;5075461;28;20515;-59
2023/11/25 02:44:17;;;;;;;11.53;7.57;;;1.80;99.90;;;;;;5075536;28;20518;-60
2023/11/25 02:46:45;;;;;;;14.30;7.40;;;1.80;99.90;;;;;;5074668;28;20490;-60
2023/11/25 02:49:12;;;;;;;15.07;8.37;;;1.80;99.90;;;;;;5079623;28;20527;-60
2023/11/25 02:51:40;;;;;;;13.80;7.37;;;1.80;99.90;;;;;;5081051;28;20434;-60
2023/11/25 02:54:07;;;;;;;13.47;6.67;;;1.80;99.90;;;;;;5081165;28;20548;-60
2023/11/25 02:56:35;;;;;;;14.93;8.00;;;1.80;99.90;;;;;;5080890;28;20753;-60
2023/11/25 02:59:03;;;;;;;11.53;7.10;;;1.80;99.90;;;;;;5080595;28;20484;-60
2023/11/25 03:01:32;;;;;;;12.67;8.07;;;1.70;99.90;;;;;;5080556;28;20454;-60
2023/11/25 03:04:05;;;;;;;10.60;6.00;;;1.70;99.90;;;;;;5080604;28;20842;-60
2023/11/25 03:06:32;;;;;;;18.20;7.47;;;1.70;99.90;;;;;;5080356;28;20537;-60
2023/11/25 03:09:00;;;;;;;13.00;7.50;;;1.70;99.90;;;;;;5079410;28;20457;-60
2023/11/25 03:11:28;;;;;;;13.87;7.00;;;1.60;99.90;;;;;;5080600;28;20515;-60
2023/11/25 03:13:55;;;;;;;17.40;6.43;;;1.60;99.90;;;;;;5080071;28;20473;-60
2023/11/25 03:16:24;;;;;;;13.50;6.10;;;1.60;99.90;;;;;;5080428;28;20461;-60
2023/11/25 03:18:52;;;;;;;9.63;7.10;;;1.60;99.90;;;;;;5080318;28;20461;-60
2023/11/25 03:21:20;;;;;;;17.33;6.10;;;1.60;99.90;;;;;;5080273;28;20878;-60
2023/11/25 03:23:48;;;;;;;14.40;6.07;;;1.60;99.90;;;;;;5080563;28;20464;-60
2023/11/25 03:26:15;;;;;;;13.50;6.57;;;1.50;99.90;;;;;;5080377;28;20546;-60
2023/11/25 03:28:44;;;;;;;13.77;6.50;;;1.50;99.90;;;;;;5079917;28;20761;-60
2023/11/25 03:31:12;;;;;;;8.67;4.93;;;1.50;99.90;;;;;;5079911;28;20504;-60
2023/11/25 03:33:40;;;;;;;17.57;5.70;;;1.60;99.90;;;;;;5079616;28;20475;-61
2023/11/25 03:36:08;;;;;;;11.20;5.43;;;1.60;99.90;;;;;;5080228;28;20457;-60
2023/11/25 03:38:37;;;;;;;15.73;6.20;;;1.50;99.90;;;;;;5080420;28;20464;-60
2023/11/25 03:41:05;;;;;;;12.83;5.60;;;1.50;99.90;;;;;;5079843;28;20734;-60
2023/11/25 03:43:32;;;;;;;16.40;5.20;;;1.40;99.90;;;;;;5079897;28;20902;-61
2023/11/25 03:46:00;;;;;;;12.43;5.37;;;1.50;99.90;;;;;;5079779;28;20499;-60
2023/11/25 03:48:28;;;;;;;9.83;5.67;;;1.50;99.90;;;;;;5079826;28;20489;-60
2023/11/25 03:50:57;;;;;;;7.53;4.20;;;1.40;99.90;;;;;;5079378;28;20460;-60
2023/11/25 03:53:24;;;;;;;10.73;4.93;;;1.40;99.90;;;;;;5079942;28;20457;-61
2023/11/25 03:55:51;;;;;;;14.20;5.60;;;1.40;99.90;;;;;;5079653;28;20453;-60
2023/11/25 03:58:18;;;;;;;18.97;5.87;;;1.40;99.90;;;;;;5079694;28;20486;-60
2023/11/25 04:00:44;;;;;;;16.17;6.30;;;1.40;99.90;;;;;;5078074;28;20501;-60
2023/11/25 04:03:12;;;;;;;18.20;4.90;;;1.50;99.90;;;;;;5079644;28;20468;-60
2023/11/25 04:05:39;;;;;;;12.13;5.50;;;1.50;99.90;;;;;;5079593;28;20453;-61
2023/11/25 04:08:07;;;;;;;11.07;4.70;;;1.50;99.90;;;;;;5079432;28;20490;-61
2023/11/25 04:10:36;;;;;;;18.43;6.00;;;1.50;99.90;;;;;;5079533;28;20468;-61
2023/11/25 04:13:03;;;;;;;14.90;6.07;;;1.60;99.90;;;;;;5079187;28;20527;-61
2023/11/25 04:15:31;;;;;;;13.63;5.83;;;1.60;99.90;;;;;;5078163;28;20458;-61
2023/11/25 04:17:58;;;;;;;13.70;6.30;;;1.60;99.90;;;;;;5078782;28;20464;-61
2023/11/25 04:20:28;;;;;;;16.27;6.73;;;1.60;99.90;;;;;;5078943;28;20496;-61
2023/11/25 04:22:55;;;;;;;12.30;6.10;;;1.70;99.90;;;;;;5078713;28;20461;-61
2023/11/25 04:25:24;;;;;;;15.13;7.10;;;1.70;99.90;;;;;;5079426;28;20453;-61
2023/11/25 04:27:51;;;;;;;17.70;7.30;;;1.70;99.90;;;;;;5078767;28;20489;-61
2023/11/25 04:30:19;;;;;;;19.47;7.67;;;1.70;99.90;;;;;;5079176;28;20923;-60
2023/11/25 04:32:48;;;;;;;15.37;7.57;;;1.80;99.90;;;;;;5078538;28;20548;-61
2023/11/25 04:35:16;;;;;;;13.30;7.00;;;1.80;99.90;;;;;;5079230;28;20464;-61
2023/11/25 04:37:44;;;;;;;18.00;7.40;;;1.90;99.90;;;;;;5078928;28;20457;-60
2023/11/25 04:40:12;;;;;;;13.97;7.20;;;1.80;99.90;;;;;;5079338;28;20527;-60
2023/11/25 04:42:42;;;;;;;17.67;7.10;;;1.90;99.90;;;;;;5079027;28;20468;-60
2023/11/25 04:45:15;;;;;;;20.40;9.07;;;1.90;99.90;;;;;;5078842;28;20479;-61
2023/11/25 04:47:44;;;;;;;16.40;8.37;;;1.90;99.90;;;;;;5078594;28;20562;-61
2023/11/25 04:50:12;;;;;;;20.53;9.00;;;1.90;99.90;;;;;;5078528;28;20497;-60
2023/11/25 04:52:39;;;;;;;17.20;8.10;;;1.90;99.90;;;;;;5078960;28;20462;-60
2023/11/25 04:55:08;;;;;;;17.63;8.83;;;1.90;99.90;;;;;;5078093;28;20453;-60
2023/11/25 04:57:35;;;;;;;19.13;8.97;;;1.90;99.90;;;;;;5078465;28;20443;-60
2023/11/25 05:00:09;;;;;;;16.70;8.80;;;1.90;99.90;;;;;;5078656;28;20544;-60
2023/11/25 05:02:36;;;;;;;20.47;9.07;;;1.90;99.90;;;;;;5078839;28;20461;-60
2023/11/25 05:05:04;;;;;;;25.70;9.97;;;1.80;99.90;;;;;;5078191;28;20467;-60
2023/11/25 05:07:31;;;;;;;17.70;8.50;;;1.90;99.90;;;;;;5077984;28;20939;-60
2023/11/25 05:09:58;;;;;;;23.77;9.57;;;1.80;99.90;;;;;;5078695;28;20457;-59
2023/11/25 05:12:26;;;;;;;16.50;10.37;;;1.80;99.90;;;;;;5078109;28;20457;-60
2023/11/25 05:14:52;;;;;;;27.50;11.77;;;1.80;99.90;;;;;;5077630;28;20462;-59
2023/11/25 05:17:23;;;;;;;23.17;10.80;;;1.90;99.90;;;;;;5077350;28;20428;-60
2023/11/25 05:19:50;;;;;;;26.83;12.57;;;1.90;99.90;;;;;;5078017;28;20467;-59
2023/11/25 05:22:17;;;;;;;26.30;11.90;;;1.90;99.90;;;;;;5078013;28;20457;-59
2023/11/25 05:24:44;;;;;;;24.67;12.07;;;1.90;99.90;;;;;;5077819;28;20840;-59
2023/11/25 05:27:12;;;;;;;26.30;10.83;;;1.90;99.90;;;;;;5078020;28;20490;-60
2023/11/25 05:29:39;;;;;;;25.17;11.70;;;1.90;99.90;;;;;;5078018;28;20781;-60
2023/11/25 05:32:08;;;;;;;20.10;11.00;;;1.90;99.90;;;;;;5077935;28;20428;-59
2023/11/25 05:34:39;;;;;;;23.83;11.33;;;1.90;99.90;;;;;;5077943;28;20461;-60
2023/11/25 05:37:07;;;;;;;20.73;10.30;;;1.90;99.90;;;;;;5077653;28;20457;-60
2023/11/25 05:39:35;;;;;;;21.73;10.70;;;1.90;99.90;;;;;;5077806;28;20469;-59
2023/11/25 05:42:04;;;;;;;23.27;10.37;;;2.00;99.90;;;;;;5077396;28;20925;-60
2023/11/25 05:44:31;;;;;;;26.10;9.37;;;2.00;99.90;;;;;;5078058;28;20485;-60
2023/11/25 05:46:59;;;;;;;23.53;9.23;;;2.00;99.90;;;;;;5077329;28;20853;-60
2023/11/25 05:49:26;;;;;;;18.87;9.30;;;2.00;99.90;;;;;;5077594;28;20836;-60
2023/11/25 05:51:55;;;;;;;19.13;9.27;;;2.00;99.90;;;;;;5077444;28;20461;-60
2023/11/25 05:54:22;;;;;;;18.00;7.90;;;1.90;99.90;;;;;;5077476;28;20552;-60
2023/11/25 05:56:50;;;;;;;15.57;8.20;;;2.00;99.90;;;;;;5076667;28;20512;-60
2023/11/25 05:59:18;;;;;;;21.97;8.87;;;2.00;99.90;;;;;;5076195;28;20453;-60
2023/11/25 06:01:45;;;;;;;19.30;7.60;;;2.00;99.90;;;;;;5058026;28;20454;-60
2023/11/25 06:04:12;;;;;;;24.37;8.50;;;2.00;99.90;;;;;;5057458;28;20830;-60
2023/11/25 06:06:39;;;;;;;17.40;8.53;;;2.00;99.90;;;;;;5057197;28;20494;-61
2023/11/25 06:09:11;;;;;;;21.13;7.60;;;2.10;99.90;;;;;;5057356;28;20462;-61
2023/11/25 06:11:39;;;;;;;17.93;6.53;;;2.10;99.90;;;;;;5057144;28;20954;-62
2023/11/25 06:14:08;;;;;;;20.50;7.57;;;2.00;99.90;;;;;;5057162;28;20464;-62
2023/11/25 06:16:35;;;;;;;16.80;7.43;;;2.10;99.90;;;;;;5056424;28;20549;-61
2023/11/25 06:19:03;;;;;;;22.10;8.67;;;2.10;99.90;;;;;;5056972;28;20455;-61
2023/11/25 06:21:31;;;;;;;16.70;6.27;;;2.10;99.90;;;;;;5057227;28;20467;-61
2023/11/25 06:24:00;;;;;;;13.03;5.70;;;2.10;99.90;;;;;;5056325;28;20462;-61
2023/11/25 06:26:28;;;;;;;15.93;6.13;;;2.20;99.90;;;;;;5057109;28;20436;-59
2023/11/25 06:28:56;;;;;;;13.90;7.17;;;2.20;99.90;;;;;;5056691;28;20561;-59
2023/11/25 06:31:23;;;;;;;16.00;5.97;;;2.20;99.90;;;;;;5057353;28;20465;-57
2023/11/25 06:33:51;;;;;;;18.10;6.60;;;2.20;99.90;;;;;;5057254;28;20548;-58
2023/11/25 06:36:18;;;;;;;18.53;6.30;;;2.30;99.90;;;;;;5057405;28;20465;-59
2023/11/25 06:38:45;;;;;;;15.30;7.03;;;2.30;99.90;;;;;;5056141;28;20910;-60
2023/11/25 06:41:13;;;;;;;18.37;7.47;;;2.40;99.90;;;;;;5056609;28;20465;-60
2023/11/25 06:43:43;;;;;;;20.23;6.70;;;2.40;99.90;;;;;;5057713;28;20457;-62
2023/11/25 06:46:11;;;;;;;16.10;7.13;;;2.40;99.90;;;;;;5057671;28;20468;-62
2023/11/25 06:48:38;;;;;;;14.90;7.70;;;2.40;99.90;;;;;;5057510;28;20498;-62
2023/11/25 06:51:06;;;;;;;12.43;7.10;;;2.20;99.90;;;;;;5057452;28;20741;-62
2023/11/25 06:53:33;;;;;;;18.63;6.60;;;2.20;99.90;;;;;;5057713;28;20557;-62
2023/11/25 06:56:01;;;;;;;12.33;7.17;;;2.20;99.90;;;;;;5058045;28;20557;-62
2023/11/25 06:58:28;;;;;;;16.37;7.33;;;2.20;99.90;;;;;;5058131;28;20876;-63
2023/11/25 07:01:00;;;;;;;18.03;7.50;;;2.20;99.90;;;;;;5057753;28;20883;-62
2023/11/25 07:03:27;;;;;;;15.00;7.17;;;2.20;99.90;;;;;;5057861;28;20462;-62
2023/11/25 07:05:54;;;;;;;16.60;8.40;;;2.20;99.90;;;;;;5060243;28;20533;-65
2023/11/25 07:08:22;;;;;;;22.37;8.20;;;2.30;99.90;;;;;;5059964;28;20520;-65
2023/11/25 07:10:53;;;;;;;12.80;7.70;;;2.30;99.90;;;;;;5060933;28;20552;-66
2023/11/25 07:13:21;;;;;;;17.43;7.00;;;2.30;99.90;;;;;;5065289;28;20462;-66
2023/11/25 07:15:49;;;;;;;18.70;7.70;;;2.30;99.90;;;;;;5068444;28;20475;-66
2023/11/25 07:18:19;;;;;;;14.83;7.50;;;2.40;99.90;;;;;;5066207;28;20517;-66
2023/11/25 07:20:47;;;;;;;20.50;8.50;;;2.50;99.90;;;;;;5057636;28;20465;-62
2023/11/25 07:23:14;;;;;;;17.80;8.53;;;2.50;99.90;;;;;;5057268;28;20494;-61
2023/11/25 07:25:45;;;;;;;16.40;8.90;;;2.50;99.90;;;;;;5057433;28;20507;-62
2023/11/25 07:28:12;;;;;;;22.97;9.30;;;2.60;99.90;;;;;;5057633;28;20494;-62
2023/11/25 07:30:41;;;;;;;22.67;9.63;;;2.40;99.90;;;;;;5057493;28;20568;-62
2023/11/25 07:33:09;;;;;;;18.03;8.67;;;2.50;99.90;;;;;;5056588;28;20774;-62
2023/11/25 07:35:36;;;;;;;20.80;9.53;;;2.50;99.90;;;;;;5060770;28;20470;-62
2023/11/25 07:38:04;;;;;;;22.00;11.07;;;2.50;99.90;;;;;;5060839;28;20557;-61
2023/11/25 07:40:31;;;;;;;17.53;11.67;;;2.60;99.90;;;;;;5060755;28;20439;-62
2023/11/25 07:42:58;;;;;;;16.47;11.70;;;2.60;99.90;;;;;;5060259;28;20494;-62
2023/11/25 07:45:26;;;;;;;21.40;12.93;;;2.70;99.90;;;;;;5060934;28;20561;-62
2023/11/25 07:47:53;;;;;;;22.77;12.03;;;2.80;99.90;;;;;;5061129;28;20486;-62
2023/11/25 07:50:21;;;;;;;23.80;11.40;;;2.70;99.90;;;;;;5060030;28;20556;-63
2023/11/25 07:52:51;;;;;;;22.23;13.00;;;2.80;99.90;;;;;;5060327;28;20485;-62
2023/11/25 07:55:18;;;;;;;25.93;13.37;;;2.80;99.90;;;;;;5060372;28;20462;-61
2023/11/25 07:57:47;;;;;;;32.27;12.70;;;2.80;99.90;;;;;;5059879;28;20523;-67
2023/11/25 08:00:15;;;;;;;22.93;11.60;;;2.90;99.90;;;;;;5059779;28;20462;-68
2023/11/25 08:02:43;;;;;;;24.10;12.30;;;2.80;99.90;;;;;;5059337;28;20468;-68
2023/11/25 08:05:11;;;;;;;24.90;11.73;;;2.80;99.90;;;;;;5060214;28;20470;-67
2023/11/25 08:07:38;;;;;;;31.10;11.60;;;2.80;99.90;;;;;;5059929;28;20498;-67
2023/11/25 08:10:09;;;;;;;26.87;11.10;;;2.90;99.90;;;;;;5059864;28;20486;-63
2023/11/25 08:12:36;;;;;;;23.93;10.23;;;2.90;99.90;;;;;;5059041;28;20469;-67
2023/11/25 08:15:03;;;;;;;23.77;9.40;;;3.00;99.90;;;;;;5059845;28;20648;-63
2023/11/25 08:17:31;;;;;;;21.60;8.90;;;2.90;99.90;;;;;;5058798;28;20833;-62
2023/11/25 08:19:58;;;;;;;17.37;9.73;;;3.00;99.90;;;;;;5059687;28;20979;-62
2023/11/25 08:22:26;;;;;;;21.43;8.13;;;3.00;99.90;;;;;;5059709;28;20965;-66
2023/11/25 08:24:56;;;;;;;19.77;8.60;;;3.00;99.90;;;;;;5069893;28;20794;-62
2023/11/25 08:27:25;;;;;;;24.87;7.47;;;3.00;99.90;;;;;;5079458;28;20481;-62
2023/11/25 08:29:52;;;;;;;17.93;7.83;;;3.10;99.90;;;;;;5079873;28;20457;-62
2023/11/25 08:32:19;;;;;;;15.43;8.83;;;3.10;99.90;;;;;;5079997;28;20432;-63
2023/11/25 08:34:47;;;;;;;15.10;7.13;;;3.10;99.90;;;;;;5079257;28;20556;-62
2023/11/25 08:37:14;;;;;;;13.93;7.30;;;3.20;99.90;;;;;;5077875;28;20432;-63
2023/11/25 08:39:42;;;;;;;17.40;9.87;;;3.10;99.90;;;;;;5078929;28;20461;-62
2023/11/25 08:42:10;;;;;;;16.87;8.30;;;3.10;99.90;;;;;;5077869;28;20882;-62
2023/11/25 08:44:39;;;;;;;16.60;8.93;;;3.10;99.90;;;;;;5059403;28;20899;-63
2023/11/25 08:47:07;;;;;;;25.13;9.70;;;3.00;99.90;;;;;;5059101;28;20458;-61
2023/11/25 08:49:34;;;;;;;20.87;10.20;;;3.10;99.90;;;;;;5059447;28;20739;-62
2023/11/25 08:52:02;;;;;;;15.37;9.20;;;3.10;99.90;;;;;;5058380;28;20468;-63
2023/11/25 08:54:36;;;;;;;12.77;8.90;;;3.10;99.90;;;;;;5058978;28;20482;-63
2023/11/25 08:57:03;;;;;;;13.87;8.23;;;3.10;99.90;;;;;;5059758;28;20489;-63
2023/11/25 08:59:31;;;;;;;18.73;10.67;;;3.10;99.90;;;;;;5059171;28;20481;-63
2023/11/25 09:02:03;;;;;;;13.50;9.40;;;3.30;99.90;;;;;;5059027;28;20480;-62
2023/11/25 09:04:35;;;;;;;15.40;9.30;;;3.40;99.90;;;;;;5058710;28;20558;-62
2023/11/25 09:07:03;;;;;;;13.93;8.97;;;3.50;99.90;;;;;;5057288;28;20472;-62
2023/11/25 09:09:30;;;;;;;12.93;9.40;;;3.50;99.90;;;;;;5058426;28;20454;-62
2023/11/25 09:11:57;;;;;;;12.93;8.93;;;3.50;99.90;;;;;;5058747;28;20704;-63
2023/11/25 09:14:25;;;;;;;18.33;9.23;;;3.50;99.90;;;;;;5058170;28;20494;-63
2023/11/25 09:16:52;;;;;;;13.47;8.83;;;3.50;99.90;;;;;;5058027;28;20462;-67
2023/11/25 09:19:21;;;;;;;12.93;9.23;;;3.60;99.90;;;;;;5058092;28;20908;-67
2023/11/25 09:21:51;;;;;;;17.27;9.53;;;3.60;99.90;;;;;;5058018;28;20485;-66
2023/11/25 09:24:19;;;;;;;14.67;8.73;;;3.60;99.90;;;;;;5058402;28;20759;-66
2023/11/25 09:26:47;;;;;;;14.83;7.80;;;3.70;99.90;;;;;;5058069;28;20462;-66
2023/11/25 09:29:14;;;;;;;11.83;7.10;;;3.80;99.90;;;;;;5058054;28;20490;-66
2023/11/25 09:31:41;;;;;;;14.40;8.00;;;3.80;99.90;;;;;;5057376;28;20458;-66
2023/11/25 09:34:09;;;;;;;13.97;7.37;;;3.80;99.90;;;;;;5057485;28;20462;-66
2023/11/25 09:36:37;;;;;;;10.90;8.60;;;3.70;99.90;;;;;;5057817;28;20454;-65
2023/11/25 09:39:09;;;;;;;11.77;7.57;;;3.70;99.90;;;;;;5057975;28;20454;-65
2023/11/25 09:41:37;;;;;;;22.33;8.90;;;3.70;99.90;;;;;;5058208;28;20523;-64
2023/11/25 09:44:08;;;;;;;15.10;9.73;;;3.80;99.90;;;;;;5057773;28;20535;-63
2023/11/25 09:46:36;;;;;;;13.30;9.43;;;3.90;99.90;;;;;;5057706;28;20506;-63
2023/11/25 09:49:04;;;;;;;12.67;8.63;;;4.00;99.90;;;;;;5057702;28;20486;-63
2023/11/25 09:51:33;;;;;;;16.10;8.80;;;4.00;99.90;;;;;;5058341;28;20462;-64
2023/11/25 09:54:07;;;;;;;14.93;7.80;;;4.00;99.90;;;;;;5057411;28;20462;-64
2023/11/25 09:56:37;;;;;;;14.67;8.30;;;4.00;99.90;;;;;;5057656;28;20469;-65
2023/11/25 09:59:05;;;;;;;14.40;7.37;;;3.90;99.90;;;;;;5056767;28;20454;-64
2023/11/25 10:01:33;;;;;;;10.00;7.77;;;4.10;99.90;;;;;;5057933;28;20909;-65
2023/11/25 10:04:02;;;;;;;14.20;8.80;;;4.20;99.90;;;;;;5057129;28;20470;-64
2023/11/25 10:06:30;;;;;;;11.87;8.70;;;4.20;99.90;;;;;;5057345;28;20458;-66
2023/11/25 10:08:58;;;;;;;10.20;7.27;;;4.30;99.90;;;;;;5057623;28;20939;-65
2023/11/25 10:11:32;;;;;;;21.20;9.93;;;4.40;99.90;;;;;;5057299;28;20722;-65
2023/11/25 10:14:02;;;;;;;15.17;9.67;;;4.40;99.90;;;;;;5055664;28;20470;-65
2023/11/25 10:16:30;;;;;;;22.60;12.10;;;4.50;99.90;;;;;;5056821;28;20519;-66
2023/11/25 10:18:57;;;;;;;17.70;10.50;;;4.60;99.90;;;;;;5056924;28;20859;-69
2023/11/25 10:21:25;;;;;;;19.07;11.33;;;4.60;99.90;;;;;;5057229;28;20548;-65
2023/11/25 10:23:54;;;;;;;13.77;11.40;;;4.70;99.90;;;;;;5056913;28;20454;-66
2023/11/25 10:26:23;;;;;;;17.80;11.40;;;4.80;99.90;;;;;;5055467;28;20576;-64
2023/11/25 10:28:52;;;;;;;19.77;13.30;;;4.80;99.90;;;;;;5056022;28;20579;-64
2023/11/25 10:31:19;;;;;;;19.07;12.43;;;4.80;99.90;;;;;;5056302;28;20833;-64
2023/11/25 10:33:47;;;;;;;19.20;12.50;;;4.70;99.90;;;;;;5056328;28;20490;-63
2023/11/25 10:36:14;;;;;;;21.03;12.53;;;4.70;99.90;;;;;;5056603;28;20502;-63
2023/11/25 10:38:42;;;;;;;17.80;12.83;;;4.80;99.90;;;;;;5056471;28;20552;-63
2023/11/25 10:41:13;;;;;;;17.00;11.30;;;4.90;99.90;;;;;;5057133;28;20458;-63
2023/11/25 10:43:44;;;;;;;12.27;10.23;;;5.00;99.90;;;;;;5057126;28;20926;-63
2023/11/25 10:46:13;;;;;;;13.60;9.40;;;5.10;99.90;;;;;;5056934;28;20462;-64
2023/11/25 10:48:42;;;;;;;14.73;9.43;;;5.00;99.90;;;;;;5056973;28;20746;-64
2023/11/25 10:51:11;;;;;;;13.80;9.93;;;4.90;99.90;;;;;;5057279;28;20463;-63
2023/11/25 10:53:41;;;;;;;14.70;9.60;;;4.80;99.90;;;;;;5057100;28;20481;-64
2023/11/25 10:56:08;;;;;;;15.40;9.83;;;4.80;99.90;;;;;;5056898;28;20463;-66
2023/11/25 10:58:36;;;;;;;11.07;9.90;;;4.80;99.90;;;;;;5056787;28;20905;-68
2023/11/25 11:01:03;;;;;;;14.50;10.37;;;4.60;99.90;;;;;;5056359;28;20454;-67
2023/11/25 11:03:51;;;;;;;15.53;9.80;;;4.70;99.90;;;;;;5057107;28;20433;-66
2023/11/25 11:06:22;;;;;;;12.80;9.70;;;4.70;99.90;;;;;;5059491;28;20475;-65
2023/11/25 11:08:52;;;;;;;16.10;9.10;;;4.70;99.90;;;;;;5061956;28;20952;-65
2023/11/25 11:11:31;;;;;;;12.43;9.33;;;4.70;99.90;;;;;;5070198;28;20541;-66
2023/11/25 11:14:04;;;;;;;13.97;9.07;;;4.70;99.90;;;;;;5068781;28;20454;-66
2023/11/25 11:16:39;;;;;;;12.33;9.50;;;4.70;99.90;;;;;;5068964;28;20494;-65
2023/11/25 11:19:08;;;;;;;13.33;9.47;;;4.60;99.90;;;;;;5064883;28;20878;-66
2023/11/25 11:21:39;;;;;;;14.47;9.20;;;4.60;99.90;;;;;;5062139;28;20914;-67
2023/11/25 11:24:09;;;;;;;14.70;10.10;;;4.60;99.90;;;;;;5061751;28;20458;-67
2023/11/25 11:26:45;;;;;;;12.87;10.20;;;4.60;99.90;;;;;;5060444;28;20462;-67
2023/11/25 11:29:20;;;;;;;12.37;9.13;;;4.60;99.90;;;;;;5060625;28;20532;-66
2023/11/25 11:31:58;;;;;;;12.20;8.70;;;4.70;99.90;;;;;;5059973;28;20765;-66
2023/11/25 11:34:28;;;;;;;13.63;10.33;;;4.70;99.90;;;;;;5060112;28;20781;-67
2023/11/25 11:36:56;;;;;;;15.10;9.20;;;4.70;99.90;;;;;;5060326;28;20843;-67
2023/11/25 11:39:34;;;;;;;14.37;9.40;;;4.70;99.90;;;;;;5068577;28;20519;-67
2023/11/25 11:42:27;;;;;;;14.73;9.87;;;4.80;99.90;;;;;;5079582;28;20457;-67
2023/11/25 11:45:11;;;;;;;12.70;9.77;;;4.80;99.90;;;;;;5079720;28;20527;-68
2023/11/25 11:47:45;;;;;;;20.47;10.63;;;4.80;99.90;;;;;;5076790;28;20469;-68
2023/11/25 11:50:19;;;;;;;13.17;9.50;;;4.80;99.90;;;;;;5077709;28;20500;-67
2023/11/25 11:52:48;;;;;;;11.10;8.90;;;4.70;99.90;;;;;;5079908;28;20458;-67
2023/11/25 11:55:38;;;;;;;14.90;9.63;;;4.80;99.90;;;;;;5080029;28;20508;-67
2023/11/25 11:58:08;;;;;;;10.43;8.03;;;4.90;99.90;;;;;;5079343;28;20465;-66
2023/11/25 12:00:48;;;;;;;14.33;7.33;;;4.90;99.90;;;;;;5077416;28;20477;-67
2023/11/25 12:03:16;;;;;;;7.40;5.60;;;5.00;99.90;;;;;;5079954;28;20453;-66
2023/11/25 12:05:46;;;;;;;13.17;6.53;;;4.90;99.90;;;;;;5079457;28;20879;-66
2023/11/25 12:08:13;;;;;;;10.27;6.10;;;4.90;99.90;;;;;;5079404;28;20584;-66
2023/11/25 12:10:41;;;;;;;6.53;4.70;;;5.10;99.90;;;;;;5079368;28;20508;-67
2023/11/25 12:13:11;;;;;;;10.30;4.13;;;5.10;99.90;;;;;;5079303;28;20469;-66
2023/11/25 12:15:38;;;;;;;8.57;4.30;;;5.20;99.90;;;;;;5082958;28;20924;-65
2023/11/25 12:18:08;;;;;;;7.63;5.20;;;5.10;99.90;;;;;;5082384;28;20462;-66
2023/11/25 12:20:37;;;;;;;9.20;5.20;;;5.10;99.90;;;;;;5080199;28;20810;-67
2023/11/25 12:23:11;;;;;;;5.93;4.67;;;5.20;99.90;;;;;;5079435;28;20459;-67
2023/11/25 12:25:39;;;;;;;7.20;4.07;;;5.30;99.90;;;;;;5079667;28;20453;-67
2023/11/25 12:28:09;;;;;;;9.33;4.20;;;5.40;99.90;;;;;;5078983;28;20945;-67
2023/11/25 12:30:39;;;;;;;8.33;4.20;;;5.40;99.90;;;;;;5078512;28;20457;-66
2023/11/25 12:33:07;;;;;;;8.80;5.20;;;5.30;99.90;;;;;;5078265;28;20961;-67
2023/11/25 12:35:35;;;;;;;12.33;4.60;;;5.40;99.90;;;;;;5079319;28;20458;-66
2023/11/25 12:38:05;;;;;;;7.90;4.43;;;5.50;99.90;;;;;;5078708;28;20457;-68
2023/11/25 12:40:36;;;;;;;7.93;4.57;;;5.50;99.90;;;;;;5078871;28;20453;-67
2023/11/25 12:43:06;;;;;;;9.40;6.47;;;5.40;99.90;;;;;;5079300;28;20428;-67
2023/11/25 12:45:35;;;;;;;8.63;7.07;;;5.40;99.90;;;;;;5079834;28;20941;-67
2023/11/25 12:48:05;;;;;;;9.70;5.90;;;5.20;99.90;;;;;;5078545;28;20449;-66
2023/11/25 12:50:34;;;;;;;9.57;6.47;;;5.20;99.90;;;;;;5086617;28;20580;-66
2023/11/25 12:53:06;;;;;;;11.70;6.40;;;5.10;99.90;;;;;;5087231;28;20433;-66
2023/11/25 12:55:40;;;;;;;8.40;5.50;;;5.10;99.90;;;;;;5085275;28;20762;-65